sensor_id;sensor_type;location;lat;lon;timestamp;temperature;humidity
9157;DHT22;4613;48.392;9.998;2022-07-30T00:01:21;18.40;99.90
9157;DHT22;4613;48.392;9.998;2022-07-30T00:03:52;18.00;99.90
9157;DHT22;4613;48.392;9.998;2022-07-30T00:06:23;18.00;99.90
9157;DHT22;4613;48.392;9.998;2022-07-30T00:08:54;18.00;99.90
9157;DHT22;4613;48.392;9.998;2022-07-30T00:11:25;18.20;99.90
9157;DHT22;4613;48.392;9.998;2022-07-30T00:13:56;18.60;99.90
9157;DHT22;4613;48.392;9.998;2022-07-30T00:16:27;18.10;99.90
9157;DHT22;4613;48.392;9.998;2022-07-30T00:18:58;18.00;99.90
9157;DHT22;4613;48.392;9.998;2022-07-30T00:21:29;18.30;99.90
9157;DHT22;4613;48.392;9.998;2022-07-30T00:24:00;18.20;99.90
9157;DHT22;4613;48.392;9.998;2022-07-30T00:26:31;18.30;99.90
9157;DHT22;4613;48.392;9.998;2022-07-30T00:29:04;18.70;99.90
9157;DHT22;4613;48.392;9.998;2022-07-30T00:31:35;18.20;99.90
9157;DHT22;4613;48.392;9.998;2022-07-30T00:34:06;17.90;99.90
9157;DHT22;4613;48.392;9.998;2022-07-30T00:36:36;17.60;99.90
9157;DHT22;4613;48.392;9.998;2022-07-30T00:39:08;17.90;99.90
9157;DHT22;4613;48.392;9.998;2022-07-30T00:41:53;17.60;99.90
9157;DHT22;4613;48.392;9.998;2022-07-30T00:44:24;18.00;99.90
9157;DHT22;4613;48.392;9.998;2022-07-30T00:46:56;17.70;99.90
9157;DHT22;4613;48.392;9.998;2022-07-30T00:49:27;17.60;99.90
9157;DHT22;4613;48.392;9.998;2022-07-30T00:51:58;17.50;99.90
9157;DHT22;4613;48.392;9.998;2022-07-30T00:54:29;18.00;99.90
9157;DHT22;4613;48.392;9.998;2022-07-30T00:57:00;17.80;99.90
9157;DHT22;4613;48.392;9.998;2022-07-30T00:59:31;17.60;99.90
9157;DHT22;4613;48.392;9.998;2022-07-30T01:02:03;18.00;99.90
9157;DHT22;4613;48.392;9.998;2022-07-30T01:04:34;18.30;99.90
9157;DHT22;4613;48.392;9.998;2022-07-30T01:07:04;18.70;99.90
9157;DHT22;4613;48.392;9.998;2022-07-30T01:09:36;18.60;99.90
9157;DHT22;4613;48.392;9.998;2022-07-30T01:12:08;18.00;99.90
9157;DHT22;4613;48.392;9.998;2022-07-30T01:14:40;18.20;99.90
9157;DHT22;4613;48.392;9.998;2022-07-30T01:17:11;18.40;99.90
9157;DHT22;4613;48.392;9.998;2022-07-30T01:19:44;18.30;99.90
9157;DHT22;4613;48.392;9.998;2022-07-30T01:28:35;18.10;99.90
9157;DHT22;4613;48.392;9.998;2022-07-30T01:30:47;18.10;99.90
9157;DHT22;4613;48.392;9.998;2022-07-30T01:33:21;18.20;99.90
9157;DHT22;4613;48.392;9.998;2022-07-30T01:35:53;18.30;99.90
9157;DHT22;4613;48.392;9.998;2022-07-30T01:38:26;17.80;99.90
9157;DHT22;4613;48.392;9.998;2022-07-30T01:40:58;17.80;99.90
9157;DHT22;4613;48.392;9.998;2022-07-30T01:43:32;17.60;99.90
9157;DHT22;4613;48.392;9.998;2022-07-30T01:46:05;17.80;99.90
9157;DHT22;4613;48.392;9.998;2022-07-30T01:48:41;17.80;99.90
9157;DHT22;4613;48.392;9.998;2022-07-30T01:51:16;17.00;99.90
9157;DHT22;4613;48.392;9.998;2022-07-30T01:53:52;17.10;99.90
9157;DHT22;4613;48.392;9.998;2022-07-30T01:56:26;17.00;99.90
9157;DHT22;4613;48.392;9.998;2022-07-30T01:59:00;17.60;99.90
9157;DHT22;4613;48.392;9.998;2022-07-30T02:01:33;18.00;99.90
9157;DHT22;4613;48.392;9.998;2022-07-30T02:04:05;17.60;99.90
9157;DHT22;4613;48.392;9.998;2022-07-30T02:06:41;17.60;99.90
9157;DHT22;4613;48.392;9.998;2022-07-30T02:09:27;18.10;99.90
9157;DHT22;4613;48.392;9.998;2022-07-30T02:12:01;18.30;99.90
9157;DHT22;4613;48.392;9.998;2022-07-30T02:17:39;18.10;99.90
9157;DHT22;4613;48.392;9.998;2022-07-30T02:20:12;18.20;99.90
9157;DHT22;4613;48.392;9.998;2022-07-30T02:22:45;18.30;99.90
9157;DHT22;4613;48.392;9.998;2022-07-30T02:25:19;18.00;99.90
9157;DHT22;4613;48.392;9.998;2022-07-30T02:27:55;17.80;99.90
9157;DHT22;4613;48.392;9.998;2022-07-30T02:30:30;17.30;99.90
9157;DHT22;4613;48.392;9.998;2022-07-30T02:33:07;17.50;99.90
9157;DHT22;4613;48.392;9.998;2022-07-30T02:35:42;17.30;99.90
9157;DHT22;4613;48.392;9.998;2022-07-30T02:38:15;17.10;99.90
9157;DHT22;4613;48.392;9.998;2022-07-30T02:40:47;17.40;99.90
9157;DHT22;4613;48.392;9.998;2022-07-30T02:43:19;17.80;99.90
9157;DHT22;4613;48.392;9.998;2022-07-30T02:45:55;18.00;99.90
9157;DHT22;4613;48.392;9.998;2022-07-30T02:48:32;18.30;99.90
9157;DHT22;4613;48.392;9.998;2022-07-30T02:51:05;18.00;99.90
9157;DHT22;4613;48.392;9.998;2022-07-30T02:53:39;17.70;99.90
9157;DHT22;4613;48.392;9.998;2022-07-30T02:56:11;17.40;99.90
9157;DHT22;4613;48.392;9.998;2022-07-30T02:58:43;17.30;99.90
9157;DHT22;4613;48.392;9.998;2022-07-30T03:01:17;17.10;99.90
9157;DHT22;4613;48.392;9.998;2022-07-30T03:03:51;17.10;99.90
9157;DHT22;4613;48.392;9.998;2022-07-30T03:06:24;17.10;99.90
9157;DHT22;4613;48.392;9.998;2022-07-30T03:08:57;17.10;99.90
9157;DHT22;4613;48.392;9.998;2022-07-30T03:11:30;17.00;99.90
9157;DHT22;4613;48.392;9.998;2022-07-30T03:14:01;17.10;99.90
9157;DHT22;4613;48.392;9.998;2022-07-30T03:16:36;17.30;99.90
9157;DHT22;4613;48.392;9.998;2022-07-30T03:19:14;17.00;99.90
9157;DHT22;4613;48.392;9.998;2022-07-30T03:21:48;16.80;99.90
9157;DHT22;4613;48.392;9.998;2022-07-30T03:24:22;16.70;99.90
9157;DHT22;4613;48.392;9.998;2022-07-30T03:26:55;16.70;99.90
9157;DHT22;4613;48.392;9.998;2022-07-30T03:29:27;17.00;99.90
9157;DHT22;4613;48.392;9.998;2022-07-30T03:31:59;16.90;99.90
9157;DHT22;4613;48.392;9.998;2022-07-30T03:34:34;17.30;99.90
9157;DHT22;4613;48.392;9.998;2022-07-30T03:37:05;17.30;99.90
9157;DHT22;4613;48.392;9.998;2022-07-30T03:39:38;17.30;99.90
9157;DHT22;4613;48.392;9.998;2022-07-30T03:42:10;17.50;99.90
9157;DHT22;4613;48.392;9.998;2022-07-30T03:44:43;16.70;99.90
9157;DHT22;4613;48.392;9.998;2022-07-30T03:47:16;17.20;99.90
9157;DHT22;4613;48.392;9.998;2022-07-30T03:49:52;17.70;99.90
9157;DHT22;4613;48.392;9.998;2022-07-30T03:52:23;17.00;99.90
9157;DHT22;4613;48.392;9.998;2022-07-30T03:54:55;17.20;99.90
9157;DHT22;4613;48.392;9.998;2022-07-30T03:57:44;17.40;99.90
9157;DHT22;4613;48.392;9.998;2022-07-30T04:00:15;17.30;99.90
9157;DHT22;4613;48.392;9.998;2022-07-30T04:02:56;17.50;99.90
9157;DHT22;4613;48.392;9.998;2022-07-30T04:05:37;17.00;99.90
9157;DHT22;4613;48.392;9.998;2022-07-30T04:08:09;17.00;99.90
9157;DHT22;4613;48.392;9.998;2022-07-30T04:10:40;17.20;99.90
9157;DHT22;4613;48.392;9.998;2022-07-30T04:13:43;17.30;99.90
9157;DHT22;4613;48.392;9.998;2022-07-30T04:16:22;17.00;99.90
9157;DHT22;4613;48.392;9.998;2022-07-30T04:18:54;16.90;99.90
9157;DHT22;4613;48.392;9.998;2022-07-30T04:21:26;17.00;99.90
9157;DHT22;4613;48.392;9.998;2022-07-30T04:23:59;17.20;99.90
9157;DHT22;4613;48.392;9.998;2022-07-30T04:26:35;17.50;99.90
9157;DHT22;4613;48.392;9.998;2022-07-30T04:29:08;17.70;99.90
9157;DHT22;4613;48.392;9.998;2022-07-30T04:31:41;17.10;99.90
9157;DHT22;4613;48.392;9.998;2022-07-30T04:34:53;17.00;99.90
9157;DHT22;4613;48.392;9.998;2022-07-30T04:37:44;17.20;99.90
9157;DHT22;4613;48.392;9.998;2022-07-30T04:40:15;17.80;99.90
9157;DHT22;4613;48.392;9.998;2022-07-30T04:42:46;18.20;99.90
9157;DHT22;4613;48.392;9.998;2022-07-30T04:45:17;17.60;99.90
9157;DHT22;4613;48.392;9.998;2022-07-30T04:47:55;17.70;99.90
9157;DHT22;4613;48.392;9.998;2022-07-30T04:50:29;17.30;99.90
9157;DHT22;4613;48.392;9.998;2022-07-30T04:53:02;17.70;99.90
9157;DHT22;4613;48.392;9.998;2022-07-30T04:55:41;17.80;99.90
9157;DHT22;4613;48.392;9.998;2022-07-30T04:58:15;17.80;99.90
9157;DHT22;4613;48.392;9.998;2022-07-30T05:00:49;17.90;99.90
9157;DHT22;4613;48.392;9.998;2022-07-30T05:03:28;17.90;99.90
9157;DHT22;4613;48.392;9.998;2022-07-30T05:06:00;18.10;99.90
9157;DHT22;4613;48.392;9.998;2022-07-30T05:08:35;18.10;99.90
9157;DHT22;4613;48.392;9.998;2022-07-30T05:11:11;18.10;99.90
9157;DHT22;4613;48.392;9.998;2022-07-30T05:13:44;18.30;99.90
9157;DHT22;4613;48.392;9.998;2022-07-30T05:16:17;19.00;99.90
9157;DHT22;4613;48.392;9.998;2022-07-30T05:18:49;19.10;99.90
9157;DHT22;4613;48.392;9.998;2022-07-30T05:21:20;18.90;99.90
9157;DHT22;4613;48.392;9.998;2022-07-30T05:23:52;18.80;99.90
9157;DHT22;4613;48.392;9.998;2022-07-30T05:26:36;18.90;99.90
9157;DHT22;4613;48.392;9.998;2022-07-30T05:29:07;18.70;99.90
9157;DHT22;4613;48.392;9.998;2022-07-30T05:31:48;18.90;99.90
9157;DHT22;4613;48.392;9.998;2022-07-30T05:34:20;18.60;99.90
9157;DHT22;4613;48.392;9.998;2022-07-30T05:36:51;18.40;99.90
9157;DHT22;4613;48.392;9.998;2022-07-30T05:39:22;18.70;99.90
9157;DHT22;4613;48.392;9.998;2022-07-30T05:42:03;18.50;99.90
9157;DHT22;4613;48.392;9.998;2022-07-30T05:44:51;18.80;99.90
9157;DHT22;4613;48.392;9.998;2022-07-30T05:47:22;19.00;99.90
9157;DHT22;4613;48.392;9.998;2022-07-30T05:49:59;18.80;99.90
9157;DHT22;4613;48.392;9.998;2022-07-30T05:52:30;18.90;99.90
9157;DHT22;4613;48.392;9.998;2022-07-30T05:55:08;18.80;99.90
9157;DHT22;4613;48.392;9.998;2022-07-30T05:57:56;18.90;99.90
9157;DHT22;4613;48.392;9.998;2022-07-30T06:00:27;18.70;99.90
9157;DHT22;4613;48.392;9.998;2022-07-30T06:02:59;19.40;99.90
9157;DHT22;4613;48.392;9.998;2022-07-30T06:05:29;19.70;99.90
9157;DHT22;4613;48.392;9.998;2022-07-30T06:08:05;19.80;99.90
9157;DHT22;4613;48.392;9.998;2022-07-30T06:10:36;19.90;99.90
9157;DHT22;4613;48.392;9.998;2022-07-30T06:13:06;19.70;99.90
9157;DHT22;4613;48.392;9.998;2022-07-30T06:15:37;19.80;99.90
9157;DHT22;4613;48.392;9.998;2022-07-30T06:18:08;19.60;99.90
9157;DHT22;4613;48.392;9.998;2022-07-30T06:20:51;20.10;99.90
9157;DHT22;4613;48.392;9.998;2022-07-30T06:23:30;19.90;99.90
9157;DHT22;4613;48.392;9.998;2022-07-30T06:26:24;20.10;99.90
9157;DHT22;4613;48.392;9.998;2022-07-30T06:28:55;20.40;99.90
9157;DHT22;4613;48.392;9.998;2022-07-30T06:31:34;19.80;99.90
9157;DHT22;4613;48.392;9.998;2022-07-30T06:34:05;20.00;99.90
9157;DHT22;4613;48.392;9.998;2022-07-30T06:36:41;19.80;99.90
9157;DHT22;4613;48.392;9.998;2022-07-30T06:39:20;19.90;99.90
9157;DHT22;4613;48.392;9.998;2022-07-30T06:42:03;19.90;99.90
9157;DHT22;4613;48.392;9.998;2022-07-30T06:44:54;20.20;99.90
9157;DHT22;4613;48.392;9.998;2022-07-30T06:47:27;19.80;99.90
9157;DHT22;4613;48.392;9.998;2022-07-30T06:50:00;20.30;99.90
9157;DHT22;4613;48.392;9.998;2022-07-30T06:52:33;20.70;99.90
9157;DHT22;4613;48.392;9.998;2022-07-30T06:55:05;21.00;99.90
9157;DHT22;4613;48.392;9.998;2022-07-30T06:57:49;20.70;99.90
9157;DHT22;4613;48.392;9.998;2022-07-30T07:00:42;20.60;99.90
9157;DHT22;4613;48.392;9.998;2022-07-30T07:03:17;20.60;99.90
9157;DHT22;4613;48.392;9.998;2022-07-30T07:05:48;20.60;99.90
9157;DHT22;4613;48.392;9.998;2022-07-30T07:08:19;20.60;99.90
9157;DHT22;4613;48.392;9.998;2022-07-30T07:10:55;20.80;99.90
9157;DHT22;4613;48.392;9.998;2022-07-30T07:13:36;21.40;99.90
9157;DHT22;4613;48.392;9.998;2022-07-30T07:16:14;21.80;99.90
9157;DHT22;4613;48.392;9.998;2022-07-30T07:18:51;21.80;99.90
9157;DHT22;4613;48.392;9.998;2022-07-30T07:21:23;21.60;99.90
9157;DHT22;4613;48.392;9.998;2022-07-30T07:23:57;21.60;99.90
9157;DHT22;4613;48.392;9.998;2022-07-30T07:26:59;21.40;99.90
9157;DHT22;4613;48.392;9.998;2022-07-30T07:29:31;21.20;99.90
9157;DHT22;4613;48.392;9.998;2022-07-30T07:32:02;21.30;99.90
9157;DHT22;4613;48.392;9.998;2022-07-30T07:34:33;22.10;99.90
9157;DHT22;4613;48.392;9.998;2022-07-30T07:37:04;22.60;99.90
9157;DHT22;4613;48.392;9.998;2022-07-30T07:39:35;22.30;99.90
9157;DHT22;4613;48.392;9.998;2022-07-30T07:42:07;23.10;99.90
9157;DHT22;4613;48.392;9.998;2022-07-30T07:44:41;23.80;99.90
9157;DHT22;4613;48.392;9.998;2022-07-30T07:47:13;23.90;99.90
9157;DHT22;4613;48.392;9.998;2022-07-30T07:49:54;23.70;99.90
9157;DHT22;4613;48.392;9.998;2022-07-30T07:52:25;23.50;99.90
9157;DHT22;4613;48.392;9.998;2022-07-30T07:54:57;23.20;99.90
9157;DHT22;4613;48.392;9.998;2022-07-30T07:57:28;23.50;99.90
9157;DHT22;4613;48.392;9.998;2022-07-30T08:00:00;23.90;99.90
9157;DHT22;4613;48.392;9.998;2022-07-30T08:02:33;24.10;99.90
9157;DHT22;4613;48.392;9.998;2022-07-30T08:05:09;23.80;99.90
9157;DHT22;4613;48.392;9.998;2022-07-30T08:07:45;23.80;99.90
9157;DHT22;4613;48.392;9.998;2022-07-30T08:10:54;24.50;99.90
9157;DHT22;4613;48.392;9.998;2022-07-30T08:14:00;24.60;99.90
9157;DHT22;4613;48.392;9.998;2022-07-30T08:16:53;24.60;99.90
9157;DHT22;4613;48.392;9.998;2022-07-30T08:19:47;24.30;99.90
9157;DHT22;4613;48.392;9.998;2022-07-30T08:22:25;24.30;99.90
9157;DHT22;4613;48.392;9.998;2022-07-30T08:24:56;24.60;99.90
9157;DHT22;4613;48.392;9.998;2022-07-30T08:27:28;24.10;99.90
9157;DHT22;4613;48.392;9.998;2022-07-30T08:30:07;23.40;99.90
9157;DHT22;4613;48.392;9.998;2022-07-30T08:32:39;23.50;99.90
9157;DHT22;4613;48.392;9.998;2022-07-30T08:35:10;24.40;99.90
9157;DHT22;4613;48.392;9.998;2022-07-30T08:37:41;25.30;98.70
9157;DHT22;4613;48.392;9.998;2022-07-30T08:40:12;25.30;98.20
9157;DHT22;4613;48.392;9.998;2022-07-30T08:42:54;24.80;98.80
9157;DHT22;4613;48.392;9.998;2022-07-30T08:45:26;25.70;97.60
9157;DHT22;4613;48.392;9.998;2022-07-30T08:47:59;25.90;97.10
9157;DHT22;4613;48.392;9.998;2022-07-30T08:50:42;25.90;95.60
9157;DHT22;4613;48.392;9.998;2022-07-30T08:53:44;25.30;95.60
9157;DHT22;4613;48.392;9.998;2022-07-30T08:56:16;25.70;95.80
9157;DHT22;4613;48.392;9.998;2022-07-30T08:58:50;25.10;95.20
9157;DHT22;4613;48.392;9.998;2022-07-30T09:01:21;25.80;93.90
9157;DHT22;4613;48.392;9.998;2022-07-30T09:03:52;25.90;93.50
9157;DHT22;4613;48.392;9.998;2022-07-30T09:06:23;26.00;93.40
9157;DHT22;4613;48.392;9.998;2022-07-30T09:08:54;25.70;94.20
9157;DHT22;4613;48.392;9.998;2022-07-30T09:11:25;25.50;93.60
9157;DHT22;4613;48.392;9.998;2022-07-30T09:14:13;25.50;93.60
9157;DHT22;4613;48.392;9.998;2022-07-30T09:16:44;25.90;92.60
9157;DHT22;4613;48.392;9.998;2022-07-30T09:19:18;26.20;92.20
9157;DHT22;4613;48.392;9.998;2022-07-30T09:21:58;25.50;91.90
9157;DHT22;4613;48.392;9.998;2022-07-30T09:24:50;25.50;93.10
9157;DHT22;4613;48.392;9.998;2022-07-30T09:27:48;26.20;92.30
9157;DHT22;4613;48.392;9.998;2022-07-30T09:30:52;25.60;92.20
9157;DHT22;4613;48.392;9.998;2022-07-30T09:33:52;25.50;92.40
9157;DHT22;4613;48.392;9.998;2022-07-30T09:40:16;26.10;91.20
9157;DHT22;4613;48.392;9.998;2022-07-30T09:43:10;24.60;92.50
9157;DHT22;4613;48.392;9.998;2022-07-30T09:48:26;25.80;92.00
9157;DHT22;4613;48.392;9.998;2022-07-30T09:50:57;24.70;92.50
9157;DHT22;4613;48.392;9.998;2022-07-30T09:53:28;24.90;92.90
9157;DHT22;4613;48.392;9.998;2022-07-30T09:56:00;25.80;92.50
9157;DHT22;4613;48.392;9.998;2022-07-30T09:58:38;26.00;91.80
9157;DHT22;4613;48.392;9.998;2022-07-30T10:01:11;25.60;91.90
9157;DHT22;4613;48.392;9.998;2022-07-30T10:04:02;25.90;92.30
9157;DHT22;4613;48.392;9.998;2022-07-30T10:06:34;26.10;92.00
9157;DHT22;4613;48.392;9.998;2022-07-30T10:09:33;24.90;92.70
9157;DHT22;4613;48.392;9.998;2022-07-30T10:12:04;25.20;93.00
9157;DHT22;4613;48.392;9.998;2022-07-30T10:14:37;25.90;92.10
9157;DHT22;4613;48.392;9.998;2022-07-30T10:17:11;26.90;91.40
9157;DHT22;4613;48.392;9.998;2022-07-30T10:19:43;26.30;91.60
9157;DHT22;4613;48.392;9.998;2022-07-30T10:22:37;26.00;92.30
9157;DHT22;4613;48.392;9.998;2022-07-30T10:25:27;25.20;92.60
9157;DHT22;4613;48.392;9.998;2022-07-30T10:28:10;25.60;92.50
9157;DHT22;4613;48.392;9.998;2022-07-30T10:30:42;26.40;92.20
9157;DHT22;4613;48.392;9.998;2022-07-30T10:33:13;25.90;92.30
9157;DHT22;4613;48.392;9.998;2022-07-30T10:35:44;25.40;93.00
9157;DHT22;4613;48.392;9.998;2022-07-30T10:38:17;26.00;92.60
9157;DHT22;4613;48.392;9.998;2022-07-30T10:46:58;25.70;92.60
9157;DHT22;4613;48.392;9.998;2022-07-30T10:49:32;25.80;92.70
9157;DHT22;4613;48.392;9.998;2022-07-30T10:52:03;25.70;92.40
9157;DHT22;4613;48.392;9.998;2022-07-30T10:54:35;25.10;92.90
9157;DHT22;4613;48.392;9.998;2022-07-30T11:02:28;25.70;92.70
9157;DHT22;4613;48.392;9.998;2022-07-30T11:07:48;26.40;91.70
9157;DHT22;4613;48.392;9.998;2022-07-30T11:10:39;26.60;91.80
9157;DHT22;4613;48.392;9.998;2022-07-30T11:13:10;26.70;91.50
9157;DHT22;4613;48.392;9.998;2022-07-30T11:18:26;26.80;91.80
9157;DHT22;4613;48.392;9.998;2022-07-30T11:21:14;26.30;91.90
9157;DHT22;4613;48.392;9.998;2022-07-30T11:23:46;25.90;91.80
9157;DHT22;4613;48.392;9.998;2022-07-30T11:32:28;26.30;90.70
9157;DHT22;4613;48.392;9.998;2022-07-30T11:35:22;26.40;91.20
9157;DHT22;4613;48.392;9.998;2022-07-30T11:43:22;26.40;91.00
9157;DHT22;4613;48.392;9.998;2022-07-30T11:49:00;26.10;91.00
9157;DHT22;4613;48.392;9.998;2022-07-30T11:51:56;26.60;90.70
9157;DHT22;4613;48.392;9.998;2022-07-30T11:54:27;26.30;90.70
9157;DHT22;4613;48.392;9.998;2022-07-30T11:56:58;25.90;90.30
9157;DHT22;4613;48.392;9.998;2022-07-30T11:59:29;26.30;90.20
9157;DHT22;4613;48.392;9.998;2022-07-30T12:01:59;26.50;90.00
9157;DHT22;4613;48.392;9.998;2022-07-30T12:04:31;26.40;89.80
9157;DHT22;4613;48.392;9.998;2022-07-30T12:07:02;26.60;89.70
9157;DHT22;4613;48.392;9.998;2022-07-30T12:09:32;26.60;89.80
9157;DHT22;4613;48.392;9.998;2022-07-30T12:12:20;26.70;89.50
9157;DHT22;4613;48.392;9.998;2022-07-30T12:14:54;26.40;87.70
9157;DHT22;4613;48.392;9.998;2022-07-30T12:17:43;26.60;87.20
9157;DHT22;4613;48.392;9.998;2022-07-30T12:20:15;26.60;86.70
9157;DHT22;4613;48.392;9.998;2022-07-30T12:22:47;26.40;86.60
9157;DHT22;4613;48.392;9.998;2022-07-30T12:25:18;26.80;86.20
9157;DHT22;4613;48.392;9.998;2022-07-30T12:27:50;26.90;86.20
9157;DHT22;4613;48.392;9.998;2022-07-30T12:30:21;26.70;86.60
9157;DHT22;4613;48.392;9.998;2022-07-30T12:32:53;26.50;86.40
9157;DHT22;4613;48.392;9.998;2022-07-30T12:35:53;26.50;86.60
9157;DHT22;4613;48.392;9.998;2022-07-30T12:38:26;26.50;86.60
9157;DHT22;4613;48.392;9.998;2022-07-30T12:41:02;26.40;86.60
9157;DHT22;4613;48.392;9.998;2022-07-30T12:43:54;26.10;87.30
9157;DHT22;4613;48.392;9.998;2022-07-30T12:46:26;26.30;86.80
9157;DHT22;4613;48.392;9.998;2022-07-30T12:48:59;26.20;85.30
9157;DHT22;4613;48.392;9.998;2022-07-30T12:51:39;26.50;86.30
9157;DHT22;4613;48.392;9.998;2022-07-30T12:54:19;26.40;85.00
9157;DHT22;4613;48.392;9.998;2022-07-30T12:56:59;26.10;85.40
9157;DHT22;4613;48.392;9.998;2022-07-30T12:59:31;25.90;85.50
9157;DHT22;4613;48.392;9.998;2022-07-30T13:02:03;26.00;86.30
9157;DHT22;4613;48.392;9.998;2022-07-30T13:04:34;26.30;84.50
9157;DHT22;4613;48.392;9.998;2022-07-30T13:07:10;26.30;83.60
9157;DHT22;4613;48.392;9.998;2022-07-30T13:09:41;26.40;84.20
9157;DHT22;4613;48.392;9.998;2022-07-30T13:12:12;26.40;84.20
9157;DHT22;4613;48.392;9.998;2022-07-30T13:14:45;26.40;83.80
9157;DHT22;4613;48.392;9.998;2022-07-30T13:17:17;26.40;83.20
9157;DHT22;4613;48.392;9.998;2022-07-30T13:19:48;26.30;84.00
9157;DHT22;4613;48.392;9.998;2022-07-30T13:22:18;26.30;83.80
9157;DHT22;4613;48.392;9.998;2022-07-30T13:24:49;26.40;84.70
9157;DHT22;4613;48.392;9.998;2022-07-30T13:27:20;26.50;83.80
9157;DHT22;4613;48.392;9.998;2022-07-30T13:29:51;26.20;83.40
9157;DHT22;4613;48.392;9.998;2022-07-30T13:32:22;26.00;84.00
9157;DHT22;4613;48.392;9.998;2022-07-30T13:34:53;25.90;84.00
9157;DHT22;4613;48.392;9.998;2022-07-30T13:37:24;26.10;84.80
9157;DHT22;4613;48.392;9.998;2022-07-30T13:39:55;26.20;83.40
9157;DHT22;4613;48.392;9.998;2022-07-30T13:42:26;26.40;83.80
9157;DHT22;4613;48.392;9.998;2022-07-30T13:44:56;26.50;83.20
9157;DHT22;4613;48.392;9.998;2022-07-30T13:47:27;26.40;82.10
9157;DHT22;4613;48.392;9.998;2022-07-30T13:49:58;26.50;82.70
9157;DHT22;4613;48.392;9.998;2022-07-30T13:52:29;26.60;81.20
9157;DHT22;4613;48.392;9.998;2022-07-30T13:55:00;26.60;81.20
9157;DHT22;4613;48.392;9.998;2022-07-30T13:57:31;26.70;81.10
9157;DHT22;4613;48.392;9.998;2022-07-30T14:00:04;26.60;81.20
9157;DHT22;4613;48.392;9.998;2022-07-30T14:02:36;26.70;80.80
9157;DHT22;4613;48.392;9.998;2022-07-30T14:05:07;26.90;81.00
9157;DHT22;4613;48.392;9.998;2022-07-30T14:07:39;27.00;80.50
9157;DHT22;4613;48.392;9.998;2022-07-30T14:10:10;26.90;80.60
9157;DHT22;4613;48.392;9.998;2022-07-30T14:12:41;27.00;80.50
9157;DHT22;4613;48.392;9.998;2022-07-30T14:15:12;26.90;80.80
9157;DHT22;4613;48.392;9.998;2022-07-30T14:17:43;26.90;80.80
9157;DHT22;4613;48.392;9.998;2022-07-30T14:20:14;26.90;80.20
9157;DHT22;4613;48.392;9.998;2022-07-30T14:22:45;26.90;79.70
9157;DHT22;4613;48.392;9.998;2022-07-30T14:25:16;27.00;78.90
9157;DHT22;4613;48.392;9.998;2022-07-30T14:27:47;27.00;78.80
9157;DHT22;4613;48.392;9.998;2022-07-30T14:30:18;27.00;79.50
9157;DHT22;4613;48.392;9.998;2022-07-30T14:32:49;27.00;79.90
9157;DHT22;4613;48.392;9.998;2022-07-30T14:35:20;27.00;80.40
9157;DHT22;4613;48.392;9.998;2022-07-30T14:37:51;27.10;79.90
9157;DHT22;4613;48.392;9.998;2022-07-30T14:40:22;27.00;79.40
9157;DHT22;4613;48.392;9.998;2022-07-30T14:42:54;27.30;80.90
9157;DHT22;4613;48.392;9.998;2022-07-30T14:45:25;27.30;80.60
9157;DHT22;4613;48.392;9.998;2022-07-30T14:47:56;27.50;81.20
9157;DHT22;4613;48.392;9.998;2022-07-30T14:50:27;27.50;80.50
9157;DHT22;4613;48.392;9.998;2022-07-30T14:52:58;27.00;81.00
9157;DHT22;4613;48.392;9.998;2022-07-30T14:55:29;26.90;81.30
9157;DHT22;4613;48.392;9.998;2022-07-30T14:57:59;27.00;80.50
9157;DHT22;4613;48.392;9.998;2022-07-30T15:00:30;27.10;80.90
9157;DHT22;4613;48.392;9.998;2022-07-30T15:03:01;27.30;80.30
9157;DHT22;4613;48.392;9.998;2022-07-30T15:05:32;27.30;80.00
9157;DHT22;4613;48.392;9.998;2022-07-30T15:08:03;27.10;79.90
9157;DHT22;4613;48.392;9.998;2022-07-30T15:10:34;27.20;79.80
9157;DHT22;4613;48.392;9.998;2022-07-30T15:13:05;27.20;79.10
9157;DHT22;4613;48.392;9.998;2022-07-30T15:15:36;27.30;79.70
9157;DHT22;4613;48.392;9.998;2022-07-30T15:18:07;27.10;79.10
9157;DHT22;4613;48.392;9.998;2022-07-30T15:20:38;27.00;79.30
9157;DHT22;4613;48.392;9.998;2022-07-30T15:23:08;27.10;78.70
9157;DHT22;4613;48.392;9.998;2022-07-30T15:25:40;27.20;78.80
9157;DHT22;4613;48.392;9.998;2022-07-30T15:28:11;27.00;78.90
9157;DHT22;4613;48.392;9.998;2022-07-30T15:30:42;27.10;79.40
9157;DHT22;4613;48.392;9.998;2022-07-30T15:33:13;27.20;79.50
9157;DHT22;4613;48.392;9.998;2022-07-30T15:35:44;27.10;79.70
9157;DHT22;4613;48.392;9.998;2022-07-30T15:38:15;26.90;80.00
9157;DHT22;4613;48.392;9.998;2022-07-30T15:40:46;27.00;79.60
9157;DHT22;4613;48.392;9.998;2022-07-30T15:43:17;27.20;79.90
9157;DHT22;4613;48.392;9.998;2022-07-30T15:45:47;27.40;80.00
9157;DHT22;4613;48.392;9.998;2022-07-30T15:48:18;27.30;78.80
9157;DHT22;4613;48.392;9.998;2022-07-30T15:51:09;27.40;79.00
9157;DHT22;4613;48.392;9.998;2022-07-30T15:53:40;27.20;78.60
9157;DHT22;4613;48.392;9.998;2022-07-30T15:56:10;27.00;79.30
9157;DHT22;4613;48.392;9.998;2022-07-30T15:58:41;26.80;79.00
9157;DHT22;4613;48.392;9.998;2022-07-30T16:01:12;26.70;79.20
9157;DHT22;4613;48.392;9.998;2022-07-30T16:03:43;26.70;79.00
9157;DHT22;4613;48.392;9.998;2022-07-30T16:06:14;26.50;79.00
9157;DHT22;4613;48.392;9.998;2022-07-30T16:08:45;26.30;79.10
9157;DHT22;4613;48.392;9.998;2022-07-30T16:11:16;26.40;79.50
9157;DHT22;4613;48.392;9.998;2022-07-30T16:13:47;26.30;79.50
9157;DHT22;4613;48.392;9.998;2022-07-30T16:16:19;26.50;79.80
9157;DHT22;4613;48.392;9.998;2022-07-30T16:18:50;26.70;79.70
9157;DHT22;4613;48.392;9.998;2022-07-30T16:21:21;26.80;79.60
9157;DHT22;4613;48.392;9.998;2022-07-30T16:23:53;26.70;79.50
9157;DHT22;4613;48.392;9.998;2022-07-30T16:26:24;26.70;79.70
9157;DHT22;4613;48.392;9.998;2022-07-30T16:28:56;26.80;79.90
9157;DHT22;4613;48.392;9.998;2022-07-30T16:31:27;26.60;79.40
9157;DHT22;4613;48.392;9.998;2022-07-30T16:33:58;26.60;80.10
9157;DHT22;4613;48.392;9.998;2022-07-30T16:36:29;26.60;80.20
9157;DHT22;4613;48.392;9.998;2022-07-30T16:39:00;26.60;79.90
9157;DHT22;4613;48.392;9.998;2022-07-30T16:41:31;26.50;84.20
9157;DHT22;4613;48.392;9.998;2022-07-30T16:44:02;26.50;81.50
9157;DHT22;4613;48.392;9.998;2022-07-30T16:46:33;26.50;84.30
9157;DHT22;4613;48.392;9.998;2022-07-30T16:49:05;26.40;80.70
9157;DHT22;4613;48.392;9.998;2022-07-30T16:51:35;26.40;82.60
9157;DHT22;4613;48.392;9.998;2022-07-30T16:54:06;26.50;81.20
9157;DHT22;4613;48.392;9.998;2022-07-30T16:56:37;26.50;80.60
9157;DHT22;4613;48.392;9.998;2022-07-30T16:59:08;26.50;80.40
9157;DHT22;4613;48.392;9.998;2022-07-30T17:01:39;26.50;80.80
9157;DHT22;4613;48.392;9.998;2022-07-30T17:04:10;26.40;81.10
9157;DHT22;4613;48.392;9.998;2022-07-30T17:06:42;26.30;81.20
9157;DHT22;4613;48.392;9.998;2022-07-30T17:09:14;26.30;81.00
9157;DHT22;4613;48.392;9.998;2022-07-30T17:11:45;26.40;81.20
9157;DHT22;4613;48.392;9.998;2022-07-30T17:14:18;26.40;81.40
9157;DHT22;4613;48.392;9.998;2022-07-30T17:16:49;26.40;81.80
9157;DHT22;4613;48.392;9.998;2022-07-30T17:19:20;26.30;81.20
9157;DHT22;4613;48.392;9.998;2022-07-30T17:21:51;26.40;81.40
9157;DHT22;4613;48.392;9.998;2022-07-30T17:24:22;26.50;81.50
9157;DHT22;4613;48.392;9.998;2022-07-30T17:26:53;26.40;81.40
9157;DHT22;4613;48.392;9.998;2022-07-30T17:29:24;26.40;81.00
9157;DHT22;4613;48.392;9.998;2022-07-30T17:31:55;26.40;81.70
9157;DHT22;4613;48.392;9.998;2022-07-30T17:34:25;26.40;81.70
9157;DHT22;4613;48.392;9.998;2022-07-30T17:36:56;26.20;82.50